sensor_id;sensor_type;location;lat;lon;timestamp;P1;durP1;ratioP1;P2;durP2;ratioP2
11018;SDS011;5563;52.296;6.806;2023-04-25T00:02:03;15.07;;;5.17;;
11018;SDS011;5563;52.296;6.806;2023-04-25T00:04:36;11.23;;;4.10;;
11018;SDS011;5563;52.296;6.806;2023-04-25T00:07:17;13.20;;;4.63;;
11018;SDS011;5563;52.296;6.806;2023-04-25T00:09:45;14.33;;;4.57;;
11018;SDS011;5563;52.296;6.806;2023-04-25T00:12:18;19.90;;;4.63;;
11018;SDS011;5563;52.296;6.806;2023-04-25T00:14:51;15.33;;;4.80;;
11018;SDS011;5563;52.296;6.806;2023-04-25T00:17:19;12.07;;;4.93;;
11018;SDS011;5563;52.296;6.806;2023-04-25T00:19:52;15.50;;;4.90;;
11018;SDS011;5563;52.296;6.806;2023-04-25T00:22:19;12.80;;;4.20;;
11018;SDS011;5563;52.296;6.806;2023-04-25T00:24:52;18.87;;;5.03;;
11018;SDS011;5563;52.296;6.806;2023-04-25T00:27:19;13.27;;;4.23;;
11018;SDS011;5563;52.296;6.806;2023-04-25T00:29:53;15.03;;;4.60;;
11018;SDS011;5563;52.296;6.806;2023-04-25T00:32:26;13.70;;;4.13;;
11018;SDS011;5563;52.296;6.806;2023-04-25T00:34:59;13.77;;;4.60;;
11018;SDS011;5563;52.296;6.806;2023-04-25T00:37:26;11.50;;;3.90;;
11018;SDS011;5563;52.296;6.806;2023-04-25T00:39:59;11.27;;;3.80;;
11018;SDS011;5563;52.296;6.806;2023-04-25T00:42:32;9.93;;;4.00;;
11018;SDS011;5563;52.296;6.806;2023-04-25T00:44:59;15.17;;;5.07;;
11018;SDS011;5563;52.296;6.806;2023-04-25T00:47:33;13.47;;;4.67;;
11018;SDS011;5563;52.296;6.806;2023-04-25T00:50:02;12.07;;;4.83;;
11018;SDS011;5563;52.296;6.806;2023-04-25T00:52:36;15.03;;;4.40;;
11018;SDS011;5563;52.296;6.806;2023-04-25T00:55:06;12.47;;;4.30;;
11018;SDS011;5563;52.296;6.806;2023-04-25T00:57:40;16.17;;;4.43;;
11018;SDS011;5563;52.296;6.806;2023-04-25T01:00:08;20.07;;;4.50;;
11018;SDS011;5563;52.296;6.806;2023-04-25T01:02:43;10.07;;;4.17;;
11018;SDS011;5563;52.296;6.806;2023-04-25T01:05:24;18.03;;;4.83;;
11018;SDS011;5563;52.296;6.806;2023-04-25T01:07:58;13.60;;;4.93;;
11018;SDS011;5563;52.296;6.806;2023-04-25T01:10:32;16.37;;;5.40;;
11018;SDS011;5563;52.296;6.806;2023-04-25T01:13:05;11.00;;;4.80;;
11018;SDS011;5563;52.296;6.806;2023-04-25T01:15:32;10.83;;;4.53;;
11018;SDS011;5563;52.296;6.806;2023-04-25T01:18:05;13.10;;;4.37;;
11018;SDS011;5563;52.296;6.806;2023-04-25T01:20:39;13.10;;;4.33;;
11018;SDS011;5563;52.296;6.806;2023-04-25T01:23:14;15.37;;;4.73;;
11018;SDS011;5563;52.296;6.806;2023-04-25T01:25:41;11.80;;;3.87;;
11018;SDS011;5563;52.296;6.806;2023-04-25T01:28:16;11.97;;;4.57;;
11018;SDS011;5563;52.296;6.806;2023-04-25T01:30:43;15.57;;;4.57;;
11018;SDS011;5563;52.296;6.806;2023-04-25T01:33:10;11.83;;;4.80;;
11018;SDS011;5563;52.296;6.806;2023-04-25T01:35:46;15.00;;;5.03;;
11018;SDS011;5563;52.296;6.806;2023-04-25T01:38:14;10.23;;;4.10;;
11018;SDS011;5563;52.296;6.806;2023-04-25T01:40:47;15.60;;;5.07;;
11018;SDS011;5563;52.296;6.806;2023-04-25T01:43:17;10.50;;;4.70;;
11018;SDS011;5563;52.296;6.806;2023-04-25T01:45:51;15.37;;;4.67;;
11018;SDS011;5563;52.296;6.806;2023-04-25T01:48:19;11.30;;;4.53;;
11018;SDS011;5563;52.296;6.806;2023-04-25T01:50:46;14.40;;;5.03;;
11018;SDS011;5563;52.296;6.806;2023-04-25T01:53:19;14.67;;;4.80;;
11018;SDS011;5563;52.296;6.806;2023-04-25T01:55:52;16.00;;;5.33;;
11018;SDS011;5563;52.296;6.806;2023-04-25T01:58:19;17.30;;;5.27;;
11018;SDS011;5563;52.296;6.806;2023-04-25T02:00:52;13.77;;;5.00;;
11018;SDS011;5563;52.296;6.806;2023-04-25T02:03:19;17.13;;;5.80;;
11018;SDS011;5563;52.296;6.806;2023-04-25T02:05:52;14.77;;;5.10;;
11018;SDS011;5563;52.296;6.806;2023-04-25T02:08:39;15.17;;;4.87;;
11018;SDS011;5563;52.296;6.806;2023-04-25T02:11:05;16.17;;;5.50;;
11018;SDS011;5563;52.296;6.806;2023-04-25T02:13:39;17.47;;;5.60;;
11018;SDS011;5563;52.296;6.806;2023-04-25T02:16:06;11.90;;;4.97;;
11018;SDS011;5563;52.296;6.806;2023-04-25T02:18:39;12.03;;;5.07;;
11018;SDS011;5563;52.296;6.806;2023-04-25T02:21:13;19.50;;;5.47;;
11018;SDS011;5563;52.296;6.806;2023-04-25T02:23:46;14.27;;;4.97;;
11018;SDS011;5563;52.296;6.806;2023-04-25T02:26:21;14.67;;;5.00;;
11018;SDS011;5563;52.296;6.806;2023-04-25T02:28:56;14.63;;;4.83;;
11018;SDS011;5563;52.296;6.806;2023-04-25T02:31:30;17.27;;;5.37;;
11018;SDS011;5563;52.296;6.806;2023-04-25T02:33:57;15.80;;;5.40;;
11018;SDS011;5563;52.296;6.806;2023-04-25T02:36:30;11.77;;;5.33;;
11018;SDS011;5563;52.296;6.806;2023-04-25T02:39:07;15.00;;;5.20;;
11018;SDS011;5563;52.296;6.806;2023-04-25T02:41:34;12.63;;;5.07;;
11018;SDS011;5563;52.296;6.806;2023-04-25T02:44:07;15.10;;;5.03;;
11018;SDS011;5563;52.296;6.806;2023-04-25T02:46:40;15.07;;;5.57;;
11018;SDS011;5563;52.296;6.806;2023-04-25T02:49:13;16.23;;;5.27;;
11018;SDS011;5563;52.296;6.806;2023-04-25T02:51:46;13.87;;;4.80;;
11018;SDS011;5563;52.296;6.806;2023-04-25T02:54:13;16.63;;;5.10;;
11018;SDS011;5563;52.296;6.806;2023-04-25T02:56:46;18.07;;;5.13;;
11018;SDS011;5563;52.296;6.806;2023-04-25T02:59:19;15.67;;;4.70;;
11018;SDS011;5563;52.296;6.806;2023-04-25T03:01:52;13.30;;;5.13;;
11018;SDS011;5563;52.296;6.806;2023-04-25T03:04:25;13.40;;;4.60;;
11018;SDS011;5563;52.296;6.806;2023-04-25T03:06:58;13.60;;;3.97;;
11018;SDS011;5563;52.296;6.806;2023-04-25T03:09:31;13.97;;;4.47;;
11018;SDS011;5563;52.296;6.806;2023-04-25T03:12:12;14.17;;;4.90;;
11018;SDS011;5563;52.296;6.806;2023-04-25T03:14:45;12.47;;;4.70;;
11018;SDS011;5563;52.296;6.806;2023-04-25T03:17:12;10.10;;;4.83;;
11018;SDS011;5563;52.296;6.806;2023-04-25T03:19:45;13.53;;;4.40;;
11018;SDS011;5563;52.296;6.806;2023-04-25T03:22:18;14.93;;;4.53;;
11018;SDS011;5563;52.296;6.806;2023-04-25T03:24:51;11.43;;;4.43;;
11018;SDS011;5563;52.296;6.806;2023-04-25T03:27:18;13.07;;;4.47;;
11018;SDS011;5563;52.296;6.806;2023-04-25T03:29:51;8.90;;;4.40;;
11018;SDS011;5563;52.296;6.806;2023-04-25T03:32:18;12.87;;;3.93;;
11018;SDS011;5563;52.296;6.806;2023-04-25T03:34:51;13.37;;;4.30;;
11018;SDS011;5563;52.296;6.806;2023-04-25T03:37:18;9.73;;;3.83;;
11018;SDS011;5563;52.296;6.806;2023-04-25T03:39:54;13.87;;;4.67;;
11018;SDS011;5563;52.296;6.806;2023-04-25T03:42:27;13.03;;;4.00;;
11018;SDS011;5563;52.296;6.806;2023-04-25T03:44:54;13.97;;;4.40;;
11018;SDS011;5563;52.296;6.806;2023-04-25T03:47:27;10.33;;;4.07;;
11018;SDS011;5563;52.296;6.806;2023-04-25T03:49:54;8.23;;;3.63;;
11018;SDS011;5563;52.296;6.806;2023-04-25T03:52:27;8.07;;;3.33;;
11018;SDS011;5563;52.296;6.806;2023-04-25T03:54:54;10.57;;;4.37;;
11018;SDS011;5563;52.296;6.806;2023-04-25T03:57:27;9.00;;;4.30;;
11018;SDS011;5563;52.296;6.806;2023-04-25T03:59:54;12.77;;;4.33;;
11018;SDS011;5563;52.296;6.806;2023-04-25T04:02:27;9.63;;;4.33;;
11018;SDS011;5563;52.296;6.806;2023-04-25T04:04:54;11.47;;;4.13;;
11018;SDS011;5563;52.296;6.806;2023-04-25T04:07:36;11.23;;;4.40;;
11018;SDS011;5563;52.296;6.806;2023-04-25T04:10:06;13.57;;;4.77;;
11018;SDS011;5563;52.296;6.806;2023-04-25T04:12:40;13.93;;;4.47;;
11018;SDS011;5563;52.296;6.806;2023-04-25T04:15:07;13.93;;;4.23;;
11018;SDS011;5563;52.296;6.806;2023-04-25T04:17:41;7.27;;;3.97;;
11018;SDS011;5563;52.296;6.806;2023-04-25T04:20:14;13.10;;;4.13;;
11018;SDS011;5563;52.296;6.806;2023-04-25T04:22:41;13.67;;;4.77;;
11018;SDS011;5563;52.296;6.806;2023-04-25T04:25:15;10.20;;;4.73;;
11018;SDS011;5563;52.296;6.806;2023-04-25T04:27:42;9.93;;;4.17;;
11018;SDS011;5563;52.296;6.806;2023-04-25T04:30:17;9.73;;;4.07;;
11018;SDS011;5563;52.296;6.806;2023-04-25T04:32:51;12.73;;;4.07;;
11018;SDS011;5563;52.296;6.806;2023-04-25T04:35:24;11.43;;;3.83;;
11018;SDS011;5563;52.296;6.806;2023-04-25T04:37:51;10.37;;;4.50;;
11018;SDS011;5563;52.296;6.806;2023-04-25T04:40:24;12.73;;;4.33;;
11018;SDS011;5563;52.296;6.806;2023-04-25T04:42:51;8.67;;;4.00;;
11018;SDS011;5563;52.296;6.806;2023-04-25T04:45:26;14.63;;;4.93;;
11018;SDS011;5563;52.296;6.806;2023-04-25T04:47:54;11.10;;;4.33;;
11018;SDS011;5563;52.296;6.806;2023-04-25T04:50:21;13.30;;;5.03;;
11018;SDS011;5563;52.296;6.806;2023-04-25T04:52:55;12.37;;;4.63;;
11018;SDS011;5563;52.296;6.806;2023-04-25T04:55:22;8.57;;;3.87;;
11018;SDS011;5563;52.296;6.806;2023-04-25T04:58:02;10.30;;;4.17;;
11018;SDS011;5563;52.296;6.806;2023-04-25T05:00:29;9.53;;;4.63;;
11018;SDS011;5563;52.296;6.806;2023-04-25T05:03:05;13.77;;;4.90;;
11018;SDS011;5563;52.296;6.806;2023-04-25T05:05:32;9.37;;;4.40;;
11018;SDS011;5563;52.296;6.806;2023-04-25T05:08:16;13.57;;;5.20;;
11018;SDS011;5563;52.296;6.806;2023-04-25T05:10:49;9.93;;;4.30;;
11018;SDS011;5563;52.296;6.806;2023-04-25T05:13:16;10.00;;;4.83;;
11018;SDS011;5563;52.296;6.806;2023-04-25T05:15:50;10.53;;;4.87;;
11018;SDS011;5563;52.296;6.806;2023-04-25T05:18:18;12.97;;;5.03;;
11018;SDS011;5563;52.296;6.806;2023-04-25T05:20:54;8.77;;;5.23;;
11018;SDS011;5563;52.296;6.806;2023-04-25T05:23:28;16.00;;;5.20;;
11018;SDS011;5563;52.296;6.806;2023-04-25T05:26:13;12.10;;;4.80;;
11018;SDS011;5563;52.296;6.806;2023-04-25T05:28:46;12.10;;;4.80;;
11018;SDS011;5563;52.296;6.806;2023-04-25T05:31:13;8.50;;;4.20;;
11018;SDS011;5563;52.296;6.806;2023-04-25T05:33:46;9.00;;;3.97;;
11018;SDS011;5563;52.296;6.806;2023-04-25T05:36:26;8.27;;;4.00;;
11018;SDS011;5563;52.296;6.806;2023-04-25T05:39:00;10.97;;;4.60;;
11018;SDS011;5563;52.296;6.806;2023-04-25T05:41:27;11.87;;;4.13;;
11018;SDS011;5563;52.296;6.806;2023-04-25T05:44:00;9.50;;;3.83;;
11018;SDS011;5563;52.296;6.806;2023-04-25T05:46:33;12.37;;;3.93;;
11018;SDS011;5563;52.296;6.806;2023-04-25T05:49:00;10.03;;;3.90;;
11018;SDS011;5563;52.296;6.806;2023-04-25T05:51:33;10.73;;;4.07;;
11018;SDS011;5563;52.296;6.806;2023-04-25T05:54:06;10.77;;;3.80;;
11018;SDS011;5563;52.296;6.806;2023-04-25T05:56:33;9.23;;;3.80;;
11018;SDS011;5563;52.296;6.806;2023-04-25T05:59:07;15.00;;;4.00;;
11018;SDS011;5563;52.296;6.806;2023-04-25T06:01:34;11.97;;;4.07;;
11018;SDS011;5563;52.296;6.806;2023-04-25T06:04:07;12.03;;;3.60;;
11018;SDS011;5563;52.296;6.806;2023-04-25T06:06:34;11.83;;;3.70;;
11018;SDS011;5563;52.296;6.806;2023-04-25T06:09:14;10.17;;;3.70;;
11018;SDS011;5563;52.296;6.806;2023-04-25T06:11:41;7.90;;;3.77;;
11018;SDS011;5563;52.296;6.806;2023-04-25T06:14:14;10.07;;;4.13;;
11018;SDS011;5563;52.296;6.806;2023-04-25T06:16:41;10.23;;;3.43;;
11018;SDS011;5563;52.296;6.806;2023-04-25T06:19:14;10.13;;;3.27;;
11018;SDS011;5563;52.296;6.806;2023-04-25T06:21:42;7.90;;;2.80;;
11018;SDS011;5563;52.296;6.806;2023-04-25T06:24:16;9.93;;;3.20;;
11018;SDS011;5563;52.296;6.806;2023-04-25T06:26:49;7.70;;;2.73;;
11018;SDS011;5563;52.296;6.806;2023-04-25T06:29:16;8.87;;;2.60;;
11018;SDS011;5563;52.296;6.806;2023-04-25T06:31:49;9.27;;;3.00;;
11018;SDS011;5563;52.296;6.806;2023-04-25T06:34:16;5.97;;;2.67;;
11018;SDS011;5563;52.296;6.806;2023-04-25T06:36:50;8.83;;;2.87;;
11018;SDS011;5563;52.296;6.806;2023-04-25T06:39:17;9.83;;;2.50;;
11018;SDS011;5563;52.296;6.806;2023-04-25T06:41:50;6.07;;;2.43;;
11018;SDS011;5563;52.296;6.806;2023-04-25T06:44:17;8.37;;;2.63;;
11018;SDS011;5563;52.296;6.806;2023-04-25T06:46:51;9.57;;;2.30;;
11018;SDS011;5563;52.296;6.806;2023-04-25T06:49:18;8.23;;;2.43;;
11018;SDS011;5563;52.296;6.806;2023-04-25T06:51:51;6.97;;;2.43;;
11018;SDS011;5563;52.296;6.806;2023-04-25T06:54:18;6.70;;;2.70;;
11018;SDS011;5563;52.296;6.806;2023-04-25T06:56:45;11.45;;;3.72;;
11018;SDS011;5563;52.296;6.806;2023-04-25T06:59:18;4.60;;;2.30;;
11018;SDS011;5563;52.296;6.806;2023-04-25T07:01:45;9.70;;;2.90;;
11018;SDS011;5563;52.296;6.806;2023-04-25T07:04:18;8.10;;;2.87;;
11018;SDS011;5563;52.296;6.806;2023-04-25T07:06:53;14.30;;;3.27;;
11018;SDS011;5563;52.296;6.806;2023-04-25T07:09:26;9.90;;;2.80;;
11018;SDS011;5563;52.296;6.806;2023-04-25T07:11:53;9.00;;;2.40;;
11018;SDS011;5563;52.296;6.806;2023-04-25T07:14:26;4.97;;;2.57;;
11018;SDS011;5563;52.296;6.806;2023-04-25T07:16:53;6.60;;;2.30;;
11018;SDS011;5563;52.296;6.806;2023-04-25T07:19:29;8.50;;;2.40;;
11018;SDS011;5563;52.296;6.806;2023-04-25T07:21:56;7.83;;;2.40;;
11018;SDS011;5563;52.296;6.806;2023-04-25T07:24:29;11.77;;;2.20;;
11018;SDS011;5563;52.296;6.806;2023-04-25T07:26:56;8.07;;;3.07;;
11018;SDS011;5563;52.296;6.806;2023-04-25T07:29:30;9.53;;;2.67;;
11018;SDS011;5563;52.296;6.806;2023-04-25T07:31:58;7.40;;;2.60;;
11018;SDS011;5563;52.296;6.806;2023-04-25T07:34:31;9.03;;;2.33;;
11018;SDS011;5563;52.296;6.806;2023-04-25T07:36:59;8.30;;;2.43;;
11018;SDS011;5563;52.296;6.806;2023-04-25T07:39:32;7.73;;;2.30;;
11018;SDS011;5563;52.296;6.806;2023-04-25T07:42:05;8.30;;;1.95;;
11018;SDS011;5563;52.296;6.806;2023-04-25T07:44:34;10.33;;;2.50;;
11018;SDS011;5563;52.296;6.806;2023-04-25T07:47:11;10.00;;;2.37;;
11018;SDS011;5563;52.296;6.806;2023-04-25T07:49:38;7.72;;;2.10;;
11018;SDS011;5563;52.296;6.806;2023-04-25T07:52:12;10.02;;;2.00;;
11018;SDS011;5563;52.296;6.806;2023-04-25T07:54:39;4.22;;;1.58;;
11018;SDS011;5563;52.296;6.806;2023-04-25T07:57:16;4.57;;;1.80;;
11018;SDS011;5563;52.296;6.806;2023-04-25T07:59:49;5.07;;;2.00;;
11018;SDS011;5563;52.296;6.806;2023-04-25T08:02:22;4.60;;;1.77;;
11018;SDS011;5563;52.296;6.806;2023-04-25T08:04:49;6.10;;;1.55;;
11018;SDS011;5563;52.296;6.806;2023-04-25T08:07:22;5.95;;;1.67;;
11018;SDS011;5563;52.296;6.806;2023-04-25T08:09:55;4.95;;;1.50;;
11018;SDS011;5563;52.296;6.806;2023-04-25T08:12:28;5.90;;;1.40;;
11018;SDS011;5563;52.296;6.806;2023-04-25T08:15:01;3.70;;;1.42;;
11018;SDS011;5563;52.296;6.806;2023-04-25T08:17:30;6.00;;;1.67;;
11018;SDS011;5563;52.296;6.806;2023-04-25T08:20:03;5.68;;;2.00;;
11018;SDS011;5563;52.296;6.806;2023-04-25T08:22:32;4.72;;;1.52;;
11018;SDS011;5563;52.296;6.806;2023-04-25T08:25:07;3.28;;;1.48;;
11018;SDS011;5563;52.296;6.806;2023-04-25T08:27:34;4.13;;;1.42;;
11018;SDS011;5563;52.296;6.806;2023-04-25T08:30:07;4.75;;;1.48;;
11018;SDS011;5563;52.296;6.806;2023-04-25T08:32:35;9.93;;;1.95;;
11018;SDS011;5563;52.296;6.806;2023-04-25T08:35:10;6.55;;;1.90;;
11018;SDS011;5563;52.296;6.806;2023-04-25T08:37:37;4.00;;;1.38;;
11018;SDS011;5563;52.296;6.806;2023-04-25T08:40:12;5.40;;;1.67;;
11018;SDS011;5563;52.296;6.806;2023-04-25T08:42:41;5.40;;;1.70;;
11018;SDS011;5563;52.296;6.806;2023-04-25T08:45:15;8.52;;;1.80;;
11018;SDS011;5563;52.296;6.806;2023-04-25T08:47:42;6.28;;;1.65;;
11018;SDS011;5563;52.296;6.806;2023-04-25T08:50:18;5.85;;;1.45;;
11018;SDS011;5563;52.296;6.806;2023-04-25T08:52:49;6.25;;;1.77;;
11018;SDS011;5563;52.296;6.806;2023-04-25T08:55:25;5.63;;;1.83;;
11018;SDS011;5563;52.296;6.806;2023-04-25T08:57:59;6.20;;;1.60;;
11018;SDS011;5563;52.296;6.806;2023-04-25T09:00:33;4.75;;;2.00;;
11018;SDS011;5563;52.296;6.806;2023-04-25T09:03:08;4.13;;;1.50;;
11018;SDS011;5563;52.296;6.806;2023-04-25T09:05:35;4.68;;;1.75;;
11018;SDS011;5563;52.296;6.806;2023-04-25T09:08:19;4.45;;;1.95;;
11018;SDS011;5563;52.296;6.806;2023-04-25T09:10:46;8.73;;;1.95;;
11018;SDS011;5563;52.296;6.806;2023-04-25T09:13:26;2.80;;;1.40;;
11018;SDS011;5563;52.296;6.806;2023-04-25T09:15:55;4.18;;;1.52;;
11018;SDS011;5563;52.296;6.806;2023-04-25T09:18:34;8.57;;;1.83;;
11018;SDS011;5563;52.296;6.806;2023-04-25T09:21:05;9.10;;;2.05;;
11018;SDS011;5563;52.296;6.806;2023-04-25T09:23:47;7.40;;;1.98;;
11018;SDS011;5563;52.296;6.806;2023-04-25T09:26:16;5.82;;;1.90;;
11018;SDS011;5563;52.296;6.806;2023-04-25T09:28:50;6.00;;;1.60;;
11018;SDS011;5563;52.296;6.806;2023-04-25T09:31:33;5.45;;;1.60;;
11018;SDS011;5563;52.296;6.806;2023-04-25T09:34:06;6.00;;;1.80;;
11018;SDS011;5563;52.296;6.806;2023-04-25T09:36:33;4.45;;;1.80;;
11018;SDS011;5563;52.296;6.806;2023-04-25T09:39:12;4.05;;;1.80;;
11018;SDS011;5563;52.296;6.806;2023-04-25T09:41:52;6.57;;;1.83;;
11018;SDS011;5563;52.296;6.806;2023-04-25T09:44:26;4.20;;;1.48;;
11018;SDS011;5563;52.296;6.806;2023-04-25T09:46:53;3.70;;;2.03;;
11018;SDS011;5563;52.296;6.806;2023-04-25T09:49:20;2.80;;;1.30;;
11018;SDS011;5563;52.296;6.806;2023-04-25T09:51:55;4.15;;;1.50;;
11018;SDS011;5563;52.296;6.806;2023-04-25T09:54:23;2.83;;;1.45;;
11018;SDS011;5563;52.296;6.806;2023-04-25T09:56:57;4.60;;;1.30;;
11018;SDS011;5563;52.296;6.806;2023-04-25T09:59:47;2.97;;;1.30;;
11018;SDS011;5563;52.296;6.806;2023-04-25T10:02:25;1.48;;;1.08;;
11018;SDS011;5563;52.296;6.806;2023-04-25T10:04:54;2.33;;;1.30;;
11018;SDS011;5563;52.296;6.806;2023-04-25T10:07:31;4.10;;;1.50;;
11018;SDS011;5563;52.296;6.806;2023-04-25T10:10:08;4.28;;;1.38;;
11018;SDS011;5563;52.296;6.806;2023-04-25T10:12:45;5.65;;;1.73;;
11018;SDS011;5563;52.296;6.806;2023-04-25T10:15:12;2.72;;;1.42;;
11018;SDS011;5563;52.296;6.806;2023-04-25T10:17:48;3.55;;;1.30;;
11018;SDS011;5563;52.296;6.806;2023-04-25T10:20:16;3.97;;;1.20;;
11018;SDS011;5563;52.296;6.806;2023-04-25T10:22:49;4.70;;;1.50;;
11018;SDS011;5563;52.296;6.806;2023-04-25T10:25:22;4.00;;;1.75;;
11018;SDS011;5563;52.296;6.806;2023-04-25T10:27:58;4.63;;;1.50;;
11018;SDS011;5563;52.296;6.806;2023-04-25T10:30:26;4.30;;;1.70;;
11018;SDS011;5563;52.296;6.806;2023-04-25T10:32:59;4.90;;;1.65;;
11018;SDS011;5563;52.296;6.806;2023-04-25T10:35:27;3.60;;;1.30;;
11018;SDS011;5563;52.296;6.806;2023-04-25T10:38:05;4.93;;;1.50;;
11018;SDS011;5563;52.296;6.806;2023-04-25T10:41:02;6.95;;;1.85;;
11018;SDS011;5563;52.296;6.806;2023-04-25T10:43:33;6.43;;;1.98;;
11018;SDS011;5563;52.296;6.806;2023-04-25T10:49:01;5.63;;;1.73;;
11018;SDS011;5563;52.296;6.806;2023-04-25T10:51:30;6.10;;;1.50;;
11018;SDS011;5563;52.296;6.806;2023-04-25T10:54:21;3.22;;;1.40;;
11018;SDS011;5563;52.296;6.806;2023-04-25T10:56:49;2.85;;;1.30;;
11018;SDS011;5563;52.296;6.806;2023-04-25T10:59:23;3.40;;;1.20;;
11018;SDS011;5563;52.296;6.806;2023-04-25T11:01:57;5.97;;;1.65;;
11018;SDS011;5563;52.296;6.806;2023-04-25T11:04:29;2.42;;;1.50;;
11018;SDS011;5563;52.296;6.806;2023-04-25T11:10:33;4.43;;;1.80;;
11018;SDS011;5563;52.296;6.806;2023-04-25T11:13:10;5.95;;;1.60;;
11018;SDS011;5563;52.296;6.806;2023-04-25T11:15:37;5.07;;;1.20;;
11018;SDS011;5563;52.296;6.806;2023-04-25T11:18:10;2.65;;;1.40;;
11018;SDS011;5563;52.296;6.806;2023-04-25T11:20:48;2.25;;;1.10;;
11018;SDS011;5563;52.296;6.806;2023-04-25T11:23:22;4.07;;;1.27;;
11018;SDS011;5563;52.296;6.806;2023-04-25T11:25:55;2.97;;;1.20;;
11018;SDS011;5563;52.296;6.806;2023-04-25T11:28:29;4.13;;;1.77;;
11018;SDS011;5563;52.296;6.806;2023-04-25T11:30:56;6.18;;;1.65;;
11018;SDS011;5563;52.296;6.806;2023-04-25T11:33:30;4.03;;;1.50;;
11018;SDS011;5563;52.296;6.806;2023-04-25T11:35:57;4.57;;;1.45;;
11018;SDS011;5563;52.296;6.806;2023-04-25T11:38:30;3.67;;;1.67;;
11018;SDS011;5563;52.296;6.806;2023-04-25T11:41:03;4.45;;;1.70;;
11018;SDS011;5563;52.296;6.806;2023-04-25T11:43:30;5.43;;;2.08;;
11018;SDS011;5563;52.296;6.806;2023-04-25T11:46:06;3.22;;;1.70;;
11018;SDS011;5563;52.296;6.806;2023-04-25T11:48:41;3.15;;;1.27;;
11018;SDS011;5563;52.296;6.806;2023-04-25T11:51:17;3.92;;;1.50;;
11018;SDS011;5563;52.296;6.806;2023-04-25T11:53:44;4.13;;;1.48;;
11018;SDS011;5563;52.296;6.806;2023-04-25T11:56:17;4.78;;;1.67;;
11018;SDS011;5563;52.296;6.806;2023-04-25T11:59:00;3.67;;;1.63;;
11018;SDS011;5563;52.296;6.806;2023-04-25T12:01:39;4.05;;;1.48;;
11018;SDS011;5563;52.296;6.806;2023-04-25T12:06:56;2.85;;;1.25;;
11018;SDS011;5563;52.296;6.806;2023-04-25T12:09:31;2.60;;;1.50;;
11018;SDS011;5563;52.296;6.806;2023-04-25T12:12:05;3.05;;;1.20;;
11018;SDS011;5563;52.296;6.806;2023-04-25T12:14:45;3.10;;;1.20;;
11018;SDS011;5563;52.296;6.806;2023-04-25T12:17:14;1.75;;;1.10;;
11018;SDS011;5563;52.296;6.806;2023-04-25T12:19:49;3.65;;;1.50;;
11018;SDS011;5563;52.296;6.806;2023-04-25T12:22:23;3.45;;;1.50;;
11018;SDS011;5563;52.296;6.806;2023-04-25T12:24:57;3.15;;;1.40;;
11018;SDS011;5563;52.296;6.806;2023-04-25T12:27:31;3.72;;;1.33;;
11018;SDS011;5563;52.296;6.806;2023-04-25T12:29:58;5.63;;;1.65;;
11018;SDS011;5563;52.296;6.806;2023-04-25T12:32:31;3.58;;;1.30;;
11018;SDS011;5563;52.296;6.806;2023-04-25T12:35:05;3.67;;;1.50;;
11018;SDS011;5563;52.296;6.806;2023-04-25T12:37:32;5.38;;;2.00;;
11018;SDS011;5563;52.296;6.806;2023-04-25T12:40:07;5.07;;;1.50;;
11018;SDS011;5563;52.296;6.806;2023-04-25T12:42:35;3.92;;;1.50;;
11018;SDS011;5563;52.296;6.806;2023-04-25T12:45:08;5.40;;;1.70;;
11018;SDS011;5563;52.296;6.806;2023-04-25T12:47:42;3.10;;;1.42;;
11018;SDS011;5563;52.296;6.806;2023-04-25T12:50:15;4.35;;;1.63;;
11018;SDS011;5563;52.296;6.806;2023-04-25T12:52:48;4.97;;;1.38;;
11018;SDS011;5563;52.296;6.806;2023-04-25T12:55:21;5.18;;;1.98;;
11018;SDS011;5563;52.296;6.806;2023-04-25T12:57:54;4.10;;;1.90;;
11018;SDS011;5563;52.296;6.806;2023-04-25T13:00:21;4.03;;;1.48;;
11018;SDS011;5563;52.296;6.806;2023-04-25T13:02:54;3.53;;;1.40;;
11018;SDS011;5563;52.296;6.806;2023-04-25T13:05:22;3.95;;;1.60;;
11018;SDS011;5563;52.296;6.806;2023-04-25T13:08:02;3.95;;;1.85;;
11018;SDS011;5563;52.296;6.806;2023-04-25T13:10:29;3.50;;;1.50;;
11018;SDS011;5563;52.296;6.806;2023-04-25T13:13:02;2.88;;;1.33;;
11018;SDS011;5563;52.296;6.806;2023-04-25T13:15:35;1.33;;;0.82;;
11018;SDS011;5563;52.296;6.806;2023-04-25T13:18:09;1.67;;;1.00;;
11018;SDS011;5563;52.296;6.806;2023-04-25T13:20:42;1.40;;;1.00;;
11018;SDS011;5563;52.296;6.806;2023-04-25T13:23:09;1.50;;;0.93;;
11018;SDS011;5563;52.296;6.806;2023-04-25T13:25:42;1.65;;;1.10;;
11018;SDS011;5563;52.296;6.806;2023-04-25T13:28:16;2.63;;;1.23;;
11018;SDS011;5563;52.296;6.806;2023-04-25T13:30:50;3.13;;;1.30;;
11018;SDS011;5563;52.296;6.806;2023-04-25T13:33:18;1.77;;;1.00;;
11018;SDS011;5563;52.296;6.806;2023-04-25T13:35:52;3.45;;;1.27;;
11018;SDS011;5563;52.296;6.806;2023-04-25T13:38:24;7.60;;;1.70;;
11018;SDS011;5563;52.296;6.806;2023-04-25T13:40:59;6.53;;;1.40;;
11018;SDS011;5563;52.296;6.806;2023-04-25T13:43:25;4.00;;;1.40;;
11018;SDS011;5563;52.296;6.806;2023-04-25T13:45:58;5.10;;;1.42;;
11018;SDS011;5563;52.296;6.806;2023-04-25T13:48:26;4.18;;;1.85;;
11018;SDS011;5563;52.296;6.806;2023-04-25T13:50:59;7.47;;;1.38;;
11018;SDS011;5563;52.296;6.806;2023-04-25T13:53:26;1.52;;;1.08;;
11018;SDS011;5563;52.296;6.806;2023-04-25T13:55:59;1.50;;;1.10;;
11018;SDS011;5563;52.296;6.806;2023-04-25T13:58:26;1.80;;;1.02;;
11018;SDS011;5563;52.296;6.806;2023-04-25T14:00:59;3.30;;;1.60;;
11018;SDS011;5563;52.296;6.806;2023-04-25T14:03:26;3.45;;;1.27;;
11018;SDS011;5563;52.296;6.806;2023-04-25T14:05:53;3.00;;;1.23;;
11018;SDS011;5563;52.296;6.806;2023-04-25T14:08:33;3.85;;;1.50;;
11018;SDS011;5563;52.296;6.806;2023-04-25T14:11:00;6.70;;;1.38;;
11018;SDS011;5563;52.296;6.806;2023-04-25T14:13:33;4.75;;;1.50;;
11018;SDS011;5563;52.296;6.806;2023-04-25T14:16:01;3.28;;;1.30;;
11018;SDS011;5563;52.296;6.806;2023-04-25T14:18:34;2.38;;;1.13;;
11018;SDS011;5563;52.296;6.806;2023-04-25T14:21:01;3.50;;;1.30;;
11018;SDS011;5563;52.296;6.806;2023-04-25T14:23:28;1.63;;;1.02;;
11018;SDS011;5563;52.296;6.806;2023-04-25T14:26:01;2.78;;;1.30;;
11018;SDS011;5563;52.296;6.806;2023-04-25T14:28:28;3.80;;;1.17;;
11018;SDS011;5563;52.296;6.806;2023-04-25T14:31:01;2.60;;;1.15;;
11018;SDS011;5563;52.296;6.806;2023-04-25T14:33:28;3.38;;;1.40;;
11018;SDS011;5563;52.296;6.806;2023-04-25T14:36:01;2.65;;;1.27;;
11018;SDS011;5563;52.296;6.806;2023-04-25T14:38:28;2.92;;;1.20;;
11018;SDS011;5563;52.296;6.806;2023-04-25T14:41:01;2.53;;;1.23;;
11018;SDS011;5563;52.296;6.806;2023-04-25T14:43:34;2.28;;;1.15;;
11018;SDS011;5563;52.296;6.806;2023-04-25T14:46:09;1.45;;;1.30;;
11018;SDS011;5563;52.296;6.806;2023-04-25T14:48:37;3.17;;;1.20;;
11018;SDS011;5563;52.296;6.806;2023-04-25T14:51:12;3.22;;;1.10;;
11018;SDS011;5563;52.296;6.806;2023-04-25T14:53:39;5.68;;;2.03;;
11018;SDS011;5563;52.296;6.806;2023-04-25T14:56:13;3.97;;;1.35;;
11018;SDS011;5563;52.296;6.806;2023-04-25T14:58:40;3.17;;;1.30;;
11018;SDS011;5563;52.296;6.806;2023-04-25T15:01:13;5.05;;;1.48;;
11018;SDS011;5563;52.296;6.806;2023-04-25T15:03:48;4.65;;;1.40;;
11018;SDS011;5563;52.296;6.806;2023-04-25T15:06:14;8.07;;;1.70;;
11018;SDS011;5563;52.296;6.806;2023-04-25T15:08:47;5.25;;;2.03;;
11018;SDS011;5563;52.296;6.806;2023-04-25T15:11:20;3.88;;;1.38;;
11018;SDS011;5563;52.296;6.806;2023-04-25T15:13:54;3.28;;;1.45;;
11018;SDS011;5563;52.296;6.806;2023-04-25T15:16:21;3.67;;;1.30;;
11018;SDS011;5563;52.296;6.806;2023-04-25T15:18:54;6.07;;;2.03;;
11018;SDS011;5563;52.296;6.806;2023-04-25T15:21:21;3.08;;;1.40;;
11018;SDS011;5563;52.296;6.806;2023-04-25T15:24:01;1.88;;;1.20;;
11018;SDS011;5563;52.296;6.806;2023-04-25T15:26:28;3.47;;;1.70;;
11018;SDS011;5563;52.296;6.806;2023-04-25T15:29:01;3.25;;;1.65;;
11018;SDS011;5563;52.296;6.806;2023-04-25T15:31:37;3.55;;;1.70;;
11018;SDS011;5563;52.296;6.806;2023-04-25T15:34:10;5.20;;;1.60;;